Time;durP1;ratioP1;P1;durP2;ratioP2;P2;SDS_P1;SDS_P2;PMS_P1;PMS_P2;Temp;Humidity;BMP_temperature;BMP_pressure;BME280_temperature;BME280_humidity;BME280_pressure;Samples;Min_cycle;Max_cycle;Signal;HPM_P1;HPM_P2
2024/01/22 00:01:49;;;;;;;0.70;0.50;;;5.20;1.00;;;;;;5095575;28;20677;-59
2024/01/22 00:04:16;;;;;;;0.77;0.50;;;5.20;1.00;;;;;;5095727;28;20479;-59
2024/01/22 00:06:43;;;;;;;1.20;0.50;;;5.20;1.00;;;;;;5077922;28;20466;-57
2024/01/22 00:09:10;;;;;;;0.80;0.50;;;5.10;1.00;;;;;;5076811;28;20723;-57
2024/01/22 00:11:37;;;;;;;0.90;0.40;;;5.10;1.00;;;;;;5075271;28;20485;-58
2024/01/22 00:14:04;;;;;;;1.50;0.50;;;5.10;1.00;;;;;;5075019;28;20844;-57
2024/01/22 00:16:32;;;;;;;1.10;0.40;;;5.10;1.00;;;;;;5089445;28;20475;-57
2024/01/22 00:19:01;;;;;;;0.95;0.50;;;5.00;1.00;;;;;;5094410;28;20746;-58
2024/01/22 00:21:28;;;;;;;1.20;0.40;;;5.00;1.00;;;;;;5093408;28;20836;-58
2024/01/22 00:23:56;;;;;;;1.00;0.50;;;4.90;1.00;;;;;;5086297;28;20899;-58
2024/01/22 00:26:23;;;;;;;1.40;0.50;;;4.80;1.00;;;;;;5075014;28;20496;-59
2024/01/22 00:28:50;;;;;;;1.10;0.50;;;4.80;1.00;;;;;;5075897;28;20480;-57
2024/01/22 00:31:17;;;;;;;0.70;0.40;;;4.90;1.00;;;;;;5075959;28;20434;-57
2024/01/22 00:33:45;;;;;;;1.45;0.50;;;4.90;1.00;;;;;;5079020;28;20431;-58
2024/01/22 00:36:15;;;;;;;0.82;0.40;;;4.80;1.00;;;;;;5094680;28;20750;-58
2024/01/22 00:38:42;;;;;;;1.50;0.50;;;4.70;1.00;;;;;;5078203;28;20441;-57
2024/01/22 00:41:09;;;;;;;0.93;0.50;;;4.70;1.00;;;;;;5087515;28;20729;-58
2024/01/22 00:43:37;;;;;;;1.80;0.40;;;4.60;1.00;;;;;;5074824;28;20446;-58
2024/01/22 00:46:05;;;;;;;0.77;0.30;;;4.60;1.00;;;;;;5073981;28;20466;-58
2024/01/22 00:48:32;;;;;;;1.10;0.40;;;4.60;1.00;;;;;;5087242;28;20437;-57
2024/01/22 00:50:59;;;;;;;1.27;0.50;;;4.50;1.00;;;;;;5078050;28;20424;-58
2024/01/22 00:53:27;;;;;;;1.00;0.50;;;4.50;1.00;;;;;;5078560;28;20427;-57
2024/01/22 00:55:54;;;;;;;0.90;0.40;;;4.50;1.00;;;;;;5092232;28;20435;-58
2024/01/22 00:58:21;;;;;;;1.40;0.50;;;4.60;1.00;;;;;;5075759;28;20737;-59
2024/01/22 01:00:48;;;;;;;0.80;0.40;;;4.50;1.00;;;;;;5075432;28;20431;-58
2024/01/22 01:03:15;;;;;;;0.90;0.50;;;4.50;1.00;;;;;;5085994;28;20437;-58
2024/01/22 01:05:43;;;;;;;0.70;0.50;;;4.40;1.00;;;;;;5092404;28;20422;-58
2024/01/22 01:08:10;;;;;;;1.00;0.50;;;4.40;1.00;;;;;;5075906;28;20720;-58
2024/01/22 01:10:38;;;;;;;1.08;0.47;;;4.30;1.00;;;;;;5082715;28;20442;-58
2024/01/22 01:13:05;;;;;;;1.10;0.50;;;4.20;1.00;;;;;;5080264;28;20523;-58
2024/01/22 01:15:32;;;;;;;0.70;0.50;;;4.10;1.00;;;;;;5084335;28;20426;-57
2024/01/22 01:17:59;;;;;;;1.97;0.50;;;4.10;1.00;;;;;;5075869;28;20533;-58
2024/01/22 01:20:26;;;;;;;1.80;0.50;;;4.10;1.00;;;;;;5074066;28;20846;-58
2024/01/22 01:22:53;;;;;;;2.00;0.40;;;4.10;1.00;;;;;;5084323;28;20438;-58
2024/01/22 01:25:20;;;;;;;1.60;0.50;;;4.10;1.00;;;;;;5093382;28;20436;-59
2024/01/22 01:27:49;;;;;;;1.10;0.50;;;4.00;1.00;;;;;;5092708;28;20445;-59
2024/01/22 01:30:16;;;;;;;1.02;0.50;;;4.00;1.00;;;;;;5094287;28;20472;-59
2024/01/22 01:32:43;;;;;;;1.10;0.50;;;4.00;1.00;;;;;;5098583;28;20428;-58
2024/01/22 01:35:10;;;;;;;0.80;0.40;;;4.00;1.00;;;;;;5098073;28;20452;-59
2024/01/22 01:37:37;;;;;;;1.20;0.50;;;4.00;1.00;;;;;;5096894;28;20438;-58
2024/01/22 01:40:05;;;;;;;1.13;0.40;;;4.00;1.00;;;;;;5082161;28;20426;-57
2024/01/22 01:42:35;;;;;;;0.75;0.43;;;4.00;1.00;;;;;;5076090;28;20426;-58
2024/01/22 01:45:04;;;;;;;0.70;0.40;;;4.00;1.00;;;;;;5078079;28;20430;-58
2024/01/22 01:47:31;;;;;;;1.10;0.50;;;4.00;1.00;;;;;;5092079;28;20434;-59
2024/01/22 01:49:58;;;;;;;1.80;0.50;;;4.00;1.00;;;;;;5089685;28;20433;-58
2024/01/22 01:52:26;;;;;;;1.20;0.57;;;4.00;1.00;;;;;;5079867;28;20505;-59
2024/01/22 01:54:53;;;;;;;1.10;0.50;;;4.00;1.00;;;;;;5088674;28;20732;-59
2024/01/22 01:57:22;;;;;;;0.80;0.45;;;4.00;1.00;;;;;;5086897;28;20432;-58
2024/01/22 01:59:51;;;;;;;1.30;0.50;;;3.90;1.00;;;;;;5096333;28;20417;-57
2024/01/22 02:02:20;;;;;;;1.38;0.50;;;3.80;1.00;;;;;;5090976;28;20829;-57
2024/01/22 02:04:47;;;;;;;0.80;0.50;;;3.80;1.00;;;;;;5083658;28;20434;-59
2024/01/22 02:07:14;;;;;;;2.43;0.60;;;3.80;1.00;;;;;;5095594;28;20461;-58
2024/01/22 02:09:49;;;;;;;1.08;0.47;;;3.90;1.00;;;;;;5092862;28;20429;-58
2024/01/22 02:12:17;;;;;;;0.80;0.40;;;3.90;1.00;;;;;;5090844;28;20437;-57
2024/01/22 02:14:44;;;;;;;1.10;0.50;;;3.80;1.00;;;;;;5076791;28;20434;-58
2024/01/22 02:17:11;;;;;;;0.98;0.50;;;3.80;1.00;;;;;;5076307;28;20840;-58
2024/01/22 02:19:40;;;;;;;0.80;0.50;;;3.90;1.00;;;;;;5095519;28;20444;-59
2024/01/22 02:22:07;;;;;;;1.10;0.50;;;3.80;1.00;;;;;;5097235;28;20418;-58
2024/01/22 02:24:36;;;;;;;0.80;0.50;;;3.70;1.00;;;;;;5086087;28;20749;-57
2024/01/22 02:27:03;;;;;;;2.20;0.57;;;3.70;1.00;;;;;;5076699;28;20431;-58
2024/01/22 02:29:30;;;;;;;1.05;0.60;;;3.70;1.00;;;;;;5076581;28;20494;-57
2024/01/22 02:31:57;;;;;;;1.55;0.40;;;3.90;1.00;;;;;;5093250;28;20441;-56
2024/01/22 02:34:27;;;;;;;1.00;0.50;;;3.80;1.00;;;;;;5095263;28;20847;-58
2024/01/22 02:36:54;;;;;;;1.00;0.50;;;3.80;1.00;;;;;;5086126;28;20721;-57
2024/01/22 02:39:21;;;;;;;1.30;0.50;;;3.80;1.00;;;;;;5090246;28;20440;-58
2024/01/22 02:41:49;;;;;;;0.70;0.40;;;3.90;1.00;;;;;;5077268;28;20429;-59
2024/01/22 02:44:16;;;;;;;0.88;0.50;;;3.90;1.00;;;;;;5088675;28;20432;-59
2024/01/22 02:46:43;;;;;;;1.10;0.50;;;3.80;1.00;;;;;;5081732;28;20762;-58
2024/01/22 02:49:10;;;;;;;1.10;0.50;;;3.80;1.00;;;;;;5094745;28;20414;-58
2024/01/22 02:51:37;;;;;;;1.35;0.50;;;3.60;1.00;;;;;;5077503;28;20435;-58
2024/01/22 02:54:05;;;;;;;1.08;0.50;;;3.60;1.00;;;;;;5094900;28;20905;-58
2024/01/22 02:56:32;;;;;;;1.70;0.50;;;3.60;1.00;;;;;;5076280;28;20513;-58
2024/01/22 02:59:01;;;;;;;0.80;0.40;;;3.60;1.00;;;;;;5089838;28;20429;-58
2024/01/22 03:01:28;;;;;;;1.30;0.40;;;3.70;1.00;;;;;;5077453;28;20435;-57
2024/01/22 03:03:55;;;;;;;0.93;0.50;;;3.60;1.00;;;;;;5081012;28;20441;-58
2024/01/22 03:06:22;;;;;;;1.20;0.50;;;3.80;1.00;;;;;;5093633;28;20897;-58
2024/01/22 03:08:49;;;;;;;1.00;0.40;;;3.70;1.00;;;;;;5094044;28;20429;-58
2024/01/22 03:11:16;;;;;;;0.80;0.50;;;3.60;9.60;;;;;;5078381;28;20432;-58
2024/01/22 03:13:43;;;;;;;1.17;0.50;;;3.60;32.50;;;;;;5078141;28;20434;-58
2024/01/22 03:16:12;;;;;;;1.00;0.50;;;3.60;75.40;;;;;;5078644;28;20492;-58
2024/01/22 03:18:39;;;;;;;1.20;0.50;;;3.50;99.90;;;;;;5095609;28;20422;-57
2024/01/22 03:21:06;;;;;;;0.77;0.50;;;3.70;99.90;;;;;;5080433;28;20429;-58
2024/01/22 03:23:33;;;;;;;1.20;0.60;;;3.70;99.90;;;;;;5091259;28;20422;-56
2024/01/22 03:26:00;;;;;;;0.85;0.50;;;3.80;99.90;;;;;;5096055;28;20702;-58
2024/01/22 03:28:27;;;;;;;0.80;0.40;;;3.90;99.90;;;;;;5095103;28;20445;-58
2024/01/22 03:30:54;;;;;;;1.40;0.50;;;3.90;99.90;;;;;;5094889;28;20876;-58
2024/01/22 03:33:23;;;;;;;0.90;0.40;;;4.00;99.90;;;;;;5094989;28;20433;-58
2024/01/22 03:35:50;;;;;;;1.50;0.57;;;4.00;99.90;;;;;;5095164;28;20838;-57
2024/01/22 03:38:17;;;;;;;1.80;0.50;;;4.00;99.90;;;;;;5095459;28;20428;-58
2024/01/22 03:40:44;;;;;;;1.20;0.50;;;4.00;99.90;;;;;;5090262;28;20425;-57
2024/01/22 03:43:11;;;;;;;1.50;0.50;;;4.10;99.90;;;;;;5094997;28;20444;-58
2024/01/22 03:45:38;;;;;;;1.00;0.40;;;4.10;99.90;;;;;;5094651;28;20421;-57
2024/01/22 03:48:05;;;;;;;0.83;0.40;;;4.20;99.90;;;;;;5095000;28;20468;-58
2024/01/22 03:50:34;;;;;;;0.90;0.50;;;4.20;99.90;;;;;;5094259;28;20424;-58
2024/01/22 03:53:01;;;;;;;0.98;0.40;;;4.20;99.90;;;;;;5094277;28;20429;-58
2024/01/22 03:55:28;;;;;;;1.90;0.50;;;4.20;99.90;;;;;;5092438;28;20430;-56
2024/01/22 03:57:55;;;;;;;0.80;0.50;;;4.30;99.90;;;;;;5094719;28;20425;-57
2024/01/22 04:00:22;;;;;;;0.80;0.40;;;4.30;99.90;;;;;;5079881;28;20435;-57
2024/01/22 04:02:50;;;;;;;1.25;0.40;;;4.30;99.90;;;;;;5091862;28;20446;-57
2024/01/22 04:05:17;;;;;;;0.70;0.40;;;4.30;99.90;;;;;;5090182;28;20447;-56
2024/01/22 04:07:45;;;;;;;1.90;0.50;;;4.30;99.90;;;;;;5074533;28;20436;-57
2024/01/22 04:10:12;;;;;;;0.80;0.40;;;4.30;99.90;;;;;;5082280;28;20433;-57
2024/01/22 04:12:39;;;;;;;0.90;0.40;;;4.30;99.90;;;;;;5089228;28;20742;-58
2024/01/22 04:15:07;;;;;;;0.75;0.50;;;4.40;99.90;;;;;;5075609;28;20518;-58
2024/01/22 04:17:34;;;;;;;0.80;0.50;;;4.40;99.90;;;;;;5073725;28;20427;-58
2024/01/22 04:20:02;;;;;;;1.00;0.50;;;4.50;99.90;;;;;;5075399;28;20525;-58
2024/01/22 04:22:29;;;;;;;1.20;0.50;;;4.60;99.90;;;;;;5079289;28;20505;-58
2024/01/22 04:24:57;;;;;;;1.55;0.60;;;4.60;99.90;;;;;;5088111;28;20431;-58
2024/01/22 04:27:24;;;;;;;0.95;0.50;;;4.60;99.90;;;;;;5074154;28;20431;-58
2024/01/22 04:29:51;;;;;;;1.30;0.50;;;4.50;99.90;;;;;;5076938;28;20423;-58
2024/01/22 04:32:19;;;;;;;1.20;0.50;;;4.40;99.90;;;;;;5072825;28;20423;-58
2024/01/22 04:34:46;;;;;;;1.00;0.50;;;4.50;99.90;;;;;;5075425;28;20447;-57
2024/01/22 04:37:14;;;;;;;0.80;0.50;;;4.40;99.90;;;;;;5075549;28;20459;-57
2024/01/22 04:39:41;;;;;;;1.20;0.50;;;4.40;99.90;;;;;;5085430;28;20689;-57
2024/01/22 04:42:09;;;;;;;1.27;0.50;;;4.40;99.90;;;;;;5090218;28;20429;-57
2024/01/22 04:44:36;;;;;;;1.13;0.50;;;4.40;99.90;;;;;;5092839;28;20862;-58
2024/01/22 04:47:04;;;;;;;1.30;0.50;;;4.30;99.90;;;;;;5076449;28;20443;-57
2024/01/22 04:49:31;;;;;;;1.40;0.40;;;4.30;99.90;;;;;;5073805;28;20436;-57
2024/01/22 04:51:58;;;;;;;0.80;0.43;;;4.20;99.90;;;;;;5087075;28;20491;-57
2024/01/22 04:54:25;;;;;;;0.50;0.35;;;4.20;99.90;;;;;;5091754;28;20846;-57
2024/01/22 04:56:52;;;;;;;0.80;0.40;;;4.20;99.90;;;;;;5073893;28;20427;-57
2024/01/22 04:59:21;;;;;;;0.65;0.40;;;4.20;99.90;;;;;;5075119;28;20428;-57
2024/01/22 05:01:48;;;;;;;0.68;0.40;;;4.30;99.90;;;;;;5074437;28;20721;-56
2024/01/22 05:04:15;;;;;;;0.70;0.40;;;4.40;99.90;;;;;;5073263;28;20845;-55
2024/01/22 05:06:42;;;;;;;1.00;0.40;;;4.40;99.90;;;;;;5074307;28;20434;-52
2024/01/22 05:09:09;;;;;;;1.08;0.50;;;4.40;99.90;;;;;;5075601;28;20443;-51
2024/01/22 05:11:36;;;;;;;0.70;0.40;;;4.50;99.90;;;;;;5075269;28;20728;-55
2024/01/22 05:14:04;;;;;;;1.17;0.50;;;4.60;99.90;;;;;;5077749;28;20439;-57
2024/01/22 05:16:33;;;;;;;0.70;0.40;;;4.60;99.90;;;;;;5096797;28;20459;-58
2024/01/22 05:19:00;;;;;;;0.63;0.40;;;4.70;99.90;;;;;;5097246;28;20434;-58
2024/01/22 05:21:27;;;;;;;1.20;0.40;;;4.70;99.90;;;;;;5095884;28;20981;-57
2024/01/22 05:23:56;;;;;;;0.60;0.40;;;4.80;99.90;;;;;;5092051;28;20707;-58
2024/01/22 05:26:23;;;;;;;0.80;0.40;;;4.90;99.90;;;;;;5097532;28;20422;-58
2024/01/22 05:28:50;;;;;;;1.40;0.40;;;4.90;99.90;;;;;;5088340;28;20729;-58
2024/01/22 05:31:17;;;;;;;1.63;0.50;;;4.90;99.90;;;;;;5075921;28;20435;-58
2024/01/22 05:33:45;;;;;;;0.80;0.40;;;5.00;99.90;;;;;;5077527;28;20431;-58
2024/01/22 05:36:12;;;;;;;0.70;0.40;;;5.10;99.90;;;;;;5075058;28;20480;-58
2024/01/22 05:38:41;;;;;;;0.90;0.40;;;5.10;99.90;;;;;;5079231;28;20417;-58
2024/01/22 05:41:08;;;;;;;0.80;0.40;;;5.20;99.90;;;;;;5087094;28;20900;-57
2024/01/22 05:43:35;;;;;;;0.70;0.40;;;5.30;99.90;;;;;;5075030;28;20415;-56
2024/01/22 05:46:02;;;;;;;0.85;0.40;;;5.30;99.90;;;;;;5074963;28;20445;-58
2024/01/22 05:48:29;;;;;;;0.63;0.40;;;5.30;99.90;;;;;;5093210;28;20515;-57
2024/01/22 05:50:58;;;;;;;0.70;0.40;;;5.30;99.90;;;;;;5096521;28;20454;-58
2024/01/22 05:53:25;;;;;;;1.00;0.40;;;5.30;99.90;;;;;;5096606;28;20426;-56
2024/01/22 05:55:52;;;;;;;0.90;0.45;;;5.30;99.90;;;;;;5096722;28;20681;-57
2024/01/22 05:58:19;;;;;;;1.00;0.45;;;5.30;99.90;;;;;;5091797;28;20431;-58
2024/01/22 06:00:46;;;;;;;0.80;0.40;;;5.30;99.90;;;;;;5085029;28;20463;-58
2024/01/22 06:03:13;;;;;;;0.80;0.40;;;5.30;99.90;;;;;;5077602;28;20449;-58
2024/01/22 06:05:41;;;;;;;0.60;0.40;;;5.40;99.90;;;;;;5076516;28;20764;-58
2024/01/22 06:08:09;;;;;;;1.10;0.50;;;5.50;99.90;;;;;;5074250;28;20470;-58
2024/01/22 06:10:36;;;;;;;0.90;0.45;;;5.60;99.90;;;;;;5076569;28;20432;-58
2024/01/22 06:13:03;;;;;;;1.67;0.50;;;5.60;99.90;;;;;;5088953;28;20534;-58
2024/01/22 06:15:30;;;;;;;0.80;0.50;;;5.70;99.90;;;;;;5089707;28;20430;-58
2024/01/22 06:17:57;;;;;;;1.60;0.50;;;5.80;99.90;;;;;;5074315;28;20419;-61
2024/01/22 06:20:24;;;;;;;0.70;0.40;;;5.80;99.90;;;;;;5086347;28;20423;-58
2024/01/22 06:22:52;;;;;;;0.83;0.50;;;5.90;99.90;;;;;;5090753;28;20919;-58
2024/01/22 06:25:20;;;;;;;0.70;0.40;;;5.90;99.90;;;;;;5090865;28;21176;-58
2024/01/22 06:27:47;;;;;;;0.80;0.40;;;5.90;90.60;;;;;;5072998;28;21035;-58
2024/01/22 06:30:15;;;;;;;0.95;0.40;;;6.00;85.60;;;;;;5077647;28;20446;-58
2024/01/22 06:32:42;;;;;;;0.73;0.40;;;6.00;85.50;;;;;;5083636;28;20430;-58
2024/01/22 06:35:11;;;;;;;1.80;0.40;;;6.00;65.20;;;;;;5075175;28;20424;-58
2024/01/22 06:37:39;;;;;;;1.05;0.40;;;6.00;48.10;;;;;;5086763;28;20425;-58
2024/01/22 06:40:08;;;;;;;1.50;0.40;;;6.00;54.00;;;;;;5089873;28;20433;-58
2024/01/22 06:42:36;;;;;;;1.60;0.40;;;6.00;43.90;;;;;;5095361;28;20439;-58
2024/01/22 06:45:04;;;;;;;2.20;0.50;;;6.00;36.70;;;;;;5094363;28;20414;-58
2024/01/22 06:47:33;;;;;;;0.80;0.40;;;6.00;27.80;;;;;;5088787;28;20801;-58
2024/01/22 06:50:00;;;;;;;0.70;0.40;;;6.10;26.30;;;;;;5076127;28;20530;-58
2024/01/22 06:52:28;;;;;;;1.30;0.40;;;6.20;25.40;;;;;;5075425;28;20434;-58
2024/01/22 06:54:56;;;;;;;0.73;0.40;;;6.20;22.10;;;;;;5090752;28;20838;-58
2024/01/22 06:57:23;;;;;;;1.00;0.50;;;6.20;11.40;;;;;;5094212;28;20422;-57
2024/01/22 06:59:52;;;;;;;0.90;0.50;;;6.20;3.10;;;;;;5094232;28;20614;-58
2024/01/22 07:02:19;;;;;;;1.10;0.50;;;6.30;1.00;;;;;;5094893;28;20418;-59
2024/01/22 07:04:47;;;;;;;1.20;0.43;;;6.20;1.00;;;;;;5093568;28;20433;-59
2024/01/22 07:07:14;;;;;;;1.80;0.80;;;6.30;1.00;;;;;;5093533;28;20492;-59
2024/01/22 07:09:41;;;;;;;0.80;0.40;;;6.30;1.00;;;;;;5093415;28;20476;-59
2024/01/22 07:12:08;;;;;;;0.90;0.50;;;6.40;1.00;;;;;;5091380;28;20934;-59
2024/01/22 07:14:35;;;;;;;1.30;0.40;;;6.40;1.00;;;;;;5085254;28;20900;-59
2024/01/22 07:17:04;;;;;;;1.10;0.50;;;6.50;1.00;;;;;;5092644;28;20422;-57
2024/01/22 07:19:31;;;;;;;2.20;0.40;;;6.40;1.00;;;;;;5093362;28;20730;-60
2024/01/22 07:21:58;;;;;;;0.90;0.43;;;6.50;1.00;;;;;;5089153;28;20422;-58
2024/01/22 07:24:28;;;;;;;1.02;0.50;;;6.60;1.00;;;;;;5083951;28;20488;-59
2024/01/22 07:26:55;;;;;;;0.80;0.40;;;6.70;1.00;;;;;;5083432;28;20437;-59
2024/01/22 07:29:26;;;;;;;0.80;0.60;;;6.70;1.00;;;;;;5081083;28;20838;-59
2024/01/22 07:31:53;;;;;;;1.00;0.50;;;6.70;1.00;;;;;;5084206;28;20816;-57
2024/01/22 07:34:22;;;;;;;1.50;0.50;;;6.80;1.00;;;;;;5083408;28;20762;-60
2024/01/22 07:36:49;;;;;;;0.80;0.40;;;6.80;1.00;;;;;;5083881;28;20433;-57
2024/01/22 07:39:16;;;;;;;1.30;0.40;;;6.80;1.00;;;;;;5084895;28;20520;-57
2024/01/22 07:41:43;;;;;;;0.70;0.40;;;6.80;1.00;;;;;;5082058;28;20727;-57
2024/01/22 07:44:11;;;;;;;1.33;0.40;;;6.80;1.00;;;;;;5084480;28;20496;-62
2024/01/22 07:46:39;;;;;;;1.00;0.40;;;6.70;1.00;;;;;;5085614;28;20566;-59
2024/01/22 07:49:07;;;;;;;0.65;0.40;;;6.80;1.00;;;;;;5083956;28;20840;-59
2024/01/22 07:51:36;;;;;;;0.70;0.50;;;6.70;1.00;;;;;;5084934;28;20445;-59
2024/01/22 07:54:05;;;;;;;0.70;0.40;;;6.80;1.00;;;;;;5085271;28;20418;-58
2024/01/22 07:56:32;;;;;;;1.05;0.30;;;6.90;1.00;;;;;;5086363;28;20485;-59
2024/01/22 07:59:00;;;;;;;0.98;0.40;;;7.00;1.00;;;;;;5084504;28;20421;-58
2024/01/22 08:01:27;;;;;;;0.90;0.40;;;7.00;1.00;;;;;;5083374;28;20816;-58
2024/01/22 08:03:54;;;;;;;0.90;0.40;;;7.10;1.00;;;;;;5084315;28;20462;-58
2024/01/22 08:06:21;;;;;;;1.30;0.40;;;7.10;1.00;;;;;;5081502;28;20704;-58
2024/01/22 08:08:49;;;;;;;2.70;0.40;;;7.20;1.00;;;;;;5082139;28;20508;-58
2024/01/22 08:11:18;;;;;;;1.85;0.40;;;7.20;1.00;;;;;;5085379;28;20423;-58
2024/01/22 08:13:45;;;;;;;0.90;0.40;;;7.30;1.00;;;;;;5079688;28;20426;-58
2024/01/22 08:16:13;;;;;;;2.40;0.60;;;7.30;1.00;;;;;;5081178;28;20824;-56
2024/01/22 08:18:42;;;;;;;0.90;0.40;;;7.40;1.00;;;;;;5081420;28;20418;-57
2024/01/22 08:21:10;;;;;;;0.70;0.30;;;7.50;1.00;;;;;;5083122;28;20815;-58
2024/01/22 08:23:38;;;;;;;1.83;0.70;;;7.60;1.00;;;;;;5086576;28;20417;-55
2024/01/22 08:26:07;;;;;;;1.73;0.40;;;7.70;1.00;;;;;;5082475;28;20413;-52
2024/01/22 08:28:34;;;;;;;1.20;0.30;;;7.80;1.00;;;;;;5083172;28;20437;-55
2024/01/22 08:31:01;;;;;;;0.60;0.30;;;7.90;1.00;;;;;;5080448;28;20483;-53
2024/01/22 08:33:28;;;;;;;1.70;0.30;;;7.90;1.00;;;;;;5079851;28;20434;-54
2024/01/22 08:35:56;;;;;;;0.40;0.20;;;8.00;1.00;;;;;;5082056;28;20425;-56
2024/01/22 08:38:25;;;;;;;0.80;0.45;;;8.00;1.00;;;;;;5083277;28;20423;-55
2024/01/22 08:40:52;;;;;;;0.80;0.40;;;8.00;1.00;;;;;;5084410;28;20429;-56
2024/01/22 08:43:21;;;;;;;1.10;0.30;;;8.00;1.00;;;;;;5086743;28;20419;-56
2024/01/22 08:45:48;;;;;;;0.90;0.20;;;8.10;1.00;;;;;;5089603;28;20417;-57
2024/01/22 08:48:15;;;;;;;0.50;0.30;;;8.20;9.60;;;;;;5087682;28;20422;-55
2024/01/22 08:50:42;;;;;;;0.50;0.30;;;8.30;48.10;;;;;;5088340;28;20418;-58
2024/01/22 08:53:09;;;;;;;0.50;0.20;;;8.50;99.90;;;;;;5087485;28;20438;-56
2024/01/22 08:55:37;;;;;;;0.80;0.20;;;8.70;99.90;;;;;;5085657;28;20435;-58
2024/01/22 08:58:04;;;;;;;0.50;0.20;;;9.00;99.90;;;;;;5090206;28;20716;-57
2024/01/22 09:00:33;;;;;;;0.30;0.20;;;9.20;99.90;;;;;;5087710;28;20415;-54
2024/01/22 09:03:00;;;;;;;0.40;0.20;;;9.40;99.90;;;;;;5086466;28;20425;-57
2024/01/22 09:05:27;;;;;;;0.40;0.20;;;9.60;99.90;;;;;;5086097;28;20447;-52
2024/01/22 09:07:55;;;;;;;0.50;0.20;;;9.80;99.90;;;;;;5083676;28;20525;-57
2024/01/22 09:10:23;;;;;;;0.50;0.20;;;9.90;1.00;;;;;;5088652;28;20461;-56
2024/01/22 09:12:50;;;;;;;0.90;0.20;;;10.10;1.00;;;;;;5096528;28;20518;-57
2024/01/22 09:15:17;;;;;;;0.50;0.10;;;10.10;1.00;;;;;;5088633;28;20860;-56
2024/01/22 09:17:46;;;;;;;0.30;0.10;;;10.20;1.00;;;;;;5093861;28;20527;-55
2024/01/22 09:20:14;;;;;;;0.40;0.10;;;10.40;1.00;;;;;;5087493;28;20431;-57
2024/01/22 09:22:41;;;;;;;0.32;0.20;;;10.50;1.00;;;;;;5091797;28;20472;-57
2024/01/22 09:25:09;;;;;;;0.40;0.20;;;10.60;1.00;;;;;;5086827;28;20875;-56
2024/01/22 09:27:37;;;;;;;0.30;0.10;;;10.70;1.00;;;;;;5096321;28;20723;-57
2024/01/22 09:30:05;;;;;;;0.30;0.10;;;10.80;1.00;;;;;;5096012;28;20435;-57
2024/01/22 09:32:32;;;;;;;0.50;0.30;;;10.80;1.00;;;;;;5089110;28;20477;-57
2024/01/22 09:35:00;;;;;;;2.95;1.58;;;10.90;1.00;;;;;;5084728;28;20459;-58
2024/01/22 09:37:27;;;;;;;0.60;0.20;;;11.00;1.00;;;;;;5087197;28;20839;-57
2024/01/22 09:39:54;;;;;;;0.40;0.20;;;11.00;1.00;;;;;;5088271;28;20425;-57
2024/01/22 09:42:21;;;;;;;0.40;0.20;;;11.10;1.00;;;;;;5095933;28;20424;-56
2024/01/22 09:44:49;;;;;;;0.80;0.20;;;11.20;1.00;;;;;;5087300;28;20434;-57
2024/01/22 09:47:17;;;;;;;0.50;0.20;;;11.20;1.00;;;;;;5078822;28;20726;-57
2024/01/22 09:49:47;;;;;;;0.90;0.10;;;11.20;1.00;;;;;;5081601;28;20484;-54
2024/01/22 09:52:17;;;;;;;0.45;0.20;;;11.30;1.00;;;;;;5081354;28;20458;-51
2024/01/22 09:54:44;;;;;;;0.30;0.10;;;11.30;1.00;;;;;;5085443;28;20451;-56
2024/01/22 09:57:16;;;;;;;0.30;0.10;;;11.40;1.00;;;;;;5091594;28;20800;-56
2024/01/22 09:59:44;;;;;;;0.60;0.20;;;11.50;1.00;;;;;;5083997;28;20427;-56
2024/01/22 10:02:14;;;;;;;0.40;0.10;;;11.50;1.00;;;;;;5081017;28;20466;-55
2024/01/22 10:04:41;;;;;;;0.57;0.20;;;11.50;1.00;;;;;;5092191;28;20425;-52
2024/01/22 10:07:09;;;;;;;1.10;0.10;;;11.50;1.00;;;;;;5078468;28;20454;-55
2024/01/22 10:09:38;;;;;;;0.38;0.20;;;11.60;1.00;;;;;;5093148;28;20434;-57
2024/01/22 10:12:05;;;;;;;0.80;0.20;;;11.70;1.00;;;;;;5093043;28;20835;-55
2024/01/22 10:14:34;;;;;;;0.30;0.10;;;11.70;1.00;;;;;;5087038;28;20414;-55
2024/01/22 10:17:16;;;;;;;0.40;0.13;;;11.80;1.00;;;;;;5089293;28;20422;-54
2024/01/22 10:19:44;;;;;;;0.80;0.20;;;11.80;1.00;;;;;;5079799;28;20519;-53
2024/01/22 10:22:12;;;;;;;0.40;0.17;;;11.80;1.00;;;;;;5086997;28;20467;-56
2024/01/22 10:24:41;;;;;;;0.40;0.10;;;11.80;13.00;;;;;;5091094;28;20437;-57
2024/01/22 10:27:14;;;;;;;0.55;0.10;;;11.80;44.60;;;;;;5075411;28;20810;-59
2024/01/22 10:29:44;;;;;;;0.30;0.10;;;11.80;99.90;;;;;;5087072;28;20428;-59
2024/01/22 10:32:11;;;;;;;0.40;0.20;;;11.80;99.90;;;;;;5084703;28;20468;-59
2024/01/22 10:34:44;;;;;;;1.00;0.20;;;11.80;99.90;;;;;;5092528;28;20858;-57
2024/01/22 10:37:12;;;;;;;0.40;0.20;;;11.80;99.90;;;;;;5086908;28;20462;-55
2024/01/22 10:39:42;;;;;;;0.40;0.10;;;11.80;1.00;;;;;;5091515;28;20433;-59
2024/01/22 10:42:13;;;;;;;1.38;0.30;;;11.80;99.90;;;;;;5094111;28;20688;-58
2024/01/22 10:44:42;;;;;;;0.60;0.20;;;11.90;1.00;;;;;;5094621;28;20847;-56
2024/01/22 10:47:09;;;;;;;0.40;0.20;;;11.90;99.90;;;;;;5092840;28;20484;-58
2024/01/22 10:49:36;;;;;;;0.30;0.20;;;11.90;99.90;;;;;;5092866;28;20437;-58
2024/01/22 10:52:05;;;;;;;1.30;0.20;;;11.90;1.00;;;;;;5091804;28;20916;-57
2024/01/22 10:54:32;;;;;;;0.30;0.10;;;11.90;1.00;;;;;;5085525;28;20458;-57
2024/01/22 10:57:04;;;;;;;0.30;0.20;;;11.80;1.00;;;;;;5086011;28;20531;-57
2024/01/22 10:59:35;;;;;;;0.30;0.10;;;11.80;1.00;;;;;;5086329;28;20441;-57
2024/01/22 11:02:05;;;;;;;0.40;0.20;;;11.90;1.00;;;;;;5080492;28;20545;-59
2024/01/22 11:04:35;;;;;;;0.80;0.20;;;11.90;1.00;;;;;;5071126;28;20459;-56
2024/01/22 11:07:04;;;;;;;0.40;0.20;;;11.90;1.00;;;;;;5084674;28;20461;-57
2024/01/22 11:09:33;;;;;;;0.40;0.20;;;12.10;99.90;;;;;;5081960;28;20884;-55
2024/01/22 11:12:10;;;;;;;0.50;0.20;;;12.10;99.90;;;;;;5084332;28;20490;-57
2024/01/22 11:14:37;;;;;;;0.50;0.20;;;12.20;99.90;;;;;;5081138;28;20885;-57
2024/01/22 11:17:06;;;;;;;0.50;0.20;;;12.40;8.90;;;;;;5081450;28;20433;-56
2024/01/22 11:19:34;;;;;;;0.40;0.20;;;12.50;24.70;;;;;;5083948;28;20442;-57
2024/01/22 11:22:04;;;;;;;0.30;0.10;;;12.60;1.00;;;;;;5083870;28;20799;-57
2024/01/22 11:24:31;;;;;;;0.50;0.20;;;12.60;1.00;;;;;;5091463;28;20442;-56
2024/01/22 11:27:07;;;;;;;0.60;0.20;;;12.60;1.00;;;;;;5091112;28;20434;-57
2024/01/22 11:29:35;;;;;;;0.57;0.20;;;12.70;1.00;;;;;;5091532;28;20426;-57
2024/01/22 11:32:27;;;;;;;0.50;0.20;;;12.60;99.90;;;;;;5091636;28;20426;-58
2024/01/22 11:34:58;;;;;;;0.50;0.20;;;12.60;99.90;;;;;;5064723;28;20833;-58
2024/01/22 11:37:38;;;;;;;0.40;0.20;;;12.50;99.90;;;;;;5081352;28;20468;-55
2024/01/22 11:40:07;;;;;;;0.40;0.20;;;12.50;1.00;;;;;;5092217;28;20442;-57
2024/01/22 11:42:36;;;;;;;0.80;0.20;;;12.40;1.00;;;;;;5093855;28;20426;-57
2024/01/22 11:45:14;;;;;;;0.50;0.20;;;12.50;99.90;;;;;;5087903;28;20840;-58
2024/01/22 11:47:42;;;;;;;0.40;0.20;;;12.40;1.00;;;;;;5083320;28;20431;-58
2024/01/22 11:50:10;;;;;;;0.50;0.20;;;12.40;99.90;;;;;;5091116;28;20444;-57
2024/01/22 11:52:38;;;;;;;0.40;0.10;;;12.30;1.00;;;;;;5089138;28;20936;-58
2024/01/22 11:55:07;;;;;;;0.57;0.20;;;12.30;80.20;;;;;;5089379;28;20421;-58
2024/01/22 11:57:37;;;;;;;0.50;0.20;;;12.30;99.90;;;;;;5091982;28;20511;-57
2024/01/22 12:00:06;;;;;;;0.30;0.10;;;12.30;1.00;;;;;;5081651;28;20431;-58
2024/01/22 12:02:34;;;;;;;0.60;0.30;;;12.30;99.90;;;;;;5091013;28;20813;-58
2024/01/22 12:05:06;;;;;;;0.50;0.20;;;12.30;99.90;;;;;;5089115;28;20950;-58
2024/01/22 12:07:38;;;;;;;0.50;0.20;;;12.20;18.70;;;;;;5072857;28;20478;-58
2024/01/22 12:10:07;;;;;;;0.30;0.10;;;12.20;28.70;;;;;;5083837;28;20437;-57
2024/01/22 12:12:34;;;;;;;1.30;0.65;;;12.20;99.90;;;;;;5087125;28;20441;-57
2024/01/22 12:15:03;;;;;;;0.85;0.20;;;12.40;99.90;;;;;;5069927;28;20482;-57
2024/01/22 12:17:30;;;;;;;0.40;0.10;;;12.40;1.00;;;;;;5078526;28;20452;-56
2024/01/22 12:19:57;;;;;;;0.40;0.20;;;12.40;99.90;;;;;;5093079;28;20425;-58
2024/01/22 12:22:25;;;;;;;0.40;0.20;;;12.40;1.00;;;;;;5092722;28;20426;-56
2024/01/22 12:25:09;;;;;;;0.50;0.20;;;12.40;99.90;;;;;;5092306;28;20422;-58
2024/01/22 12:27:36;;;;;;;0.40;0.20;;;12.50;30.90;;;;;;5093055;28;20426;-58
2024/01/22 12:30:12;;;;;;;0.30;0.10;;;12.50;34.80;;;;;;5092788;28;20512;-58
2024/01/22 12:32:40;;;;;;;0.30;0.10;;;12.60;99.90;;;;;;5092956;28;20430;-58
2024/01/22 12:35:07;;;;;;;0.50;0.20;;;12.60;1.00;;;;;;5093178;28;20430;-58
2024/01/22 12:37:35;;;;;;;0.40;0.10;;;12.60;1.00;;;;;;5085013;28;20722;-59
2024/01/22 12:40:07;;;;;;;0.30;0.10;;;12.50;1.00;;;;;;5071492;28;20423;-57
2024/01/22 12:42:34;;;;;;;1.30;0.10;;;12.50;1.00;;;;;;5071890;28;20431;-57
2024/01/22 12:45:02;;;;;;;0.50;0.10;;;12.40;99.90;;;;;;5087383;28;20419;-56
2024/01/22 12:47:33;;;;;;;0.30;0.10;;;12.30;1.00;;;;;;5072049;28;20442;-58
2024/01/22 12:50:00;;;;;;;0.30;0.10;;;12.20;1.00;;;;;;5071503;28;20497;-58
2024/01/22 12:52:27;;;;;;;0.30;0.10;;;12.20;1.00;;;;;;5087030;28;20433;-58
2024/01/22 12:54:54;;;;;;;0.30;0.10;;;12.20;1.00;;;;;;5093037;28;20436;-56
2024/01/22 12:57:21;;;;;;;0.50;0.20;;;12.30;1.00;;;;;;5082138;28;20445;-57
2024/01/22 12:59:49;;;;;;;0.30;0.10;;;12.30;1.00;;;;;;5089353;28;20525;-59
2024/01/22 13:02:16;;;;;;;0.50;0.20;;;12.30;99.90;;;;;;5074920;28;20761;-58
2024/01/22 13:04:44;;;;;;;0.30;0.10;;;12.20;1.00;;;;;;5073600;28;20706;-58